Latest Coastal Weather Observations for Low Isles

IDQ60701

Issued at 10:42 am EST Tuesday 21 November 2017 (issued every 10 minutes, with the page automatically refreshed every 10 minutes)

About coastal observations | Map of coastal stations | Coastal observations for QLD | Marine services | Other Formats
Station Details ID: 031037 Name: LOW ISLES LIGHTHOUSE Lat: -16.38 Lon: 145.56 Height: 2.9 m
Data from the previous 72 hours. | See also: Recent months at Low Isles
Date/Time
EST
Temp
°C
Wind Pressure Rain since
9am
mm
Weather Cloud Vis
km
Sea
Height
m
Swell
Dir  Spd
kts
Gust
kts
hPa Trend Height
m
Period
s
Dir
21/10:30am 25.1 SSE 13 16 1012.2 - 0.0 - - - - - - -
21/10:00am 24.8 SE 13 16 1012.1 - 0.0 - - - - - - -
21/09:30am 24.8 SE 12 17 1012.1 - 0.0 - - - - - - -
21/09:00am 24.9 ESE 15 19 1011.9 - 36.8 Distant precip. Mostly cloudy 12 - - - -
21/08:30am 24.7 ESE 15 17 1011.9 - 36.8 - - - - - - -
21/08:00am 25.2 SE 10 16 1011.7 - 36.8 - - - - - - -
21/07:30am 24.8 S 8 10 1011.5 - 36.8 - - - - - - -
21/07:00am 24.8 SSE 10 12 1011.1 - 36.8 - - - - - - -
21/06:30am 24.7 SSW 6 7 1010.9 - 36.8 - - - - - - -
21/06:00am 24.7 WSW 7 8 1010.2 - 36.8 - - - - - - -
21/05:30am 24.6 WSW 8 9 1010.1 - 36.8 - - - - - - -
21/05:00am 24.3 W 10 11 1010.0 - 36.8 - - - - - - -
21/04:30am 23.5 SW 10 12 1009.6 - 36.8 - - - - - - -
21/04:00am 22.9 NNW 5 6 1009.6 - 36.8 - - - - - - -
21/03:30am 22.8 NW 5 7 1010.1 - 36.8 - - - - - - -
21/03:00am 22.7 N 6 7 1010.0 - 36.8 - - - - - - -
21/02:30am 22.4 NNE 11 13 1010.2 - 36.8 - - - - - - -
21/02:00am 22.6 NNE 17 21 1011.0 - 36.4 - - - - - - -
21/01:30am 24.4 NNW 14 16 1011.1 - 8.2 - - - - - - -
21/01:00am 25.2 N 8 10 1011.3 - 3.4 - - - - - - -
21/12:30am 26.4 ENE 9 12 1011.6 - 0.4 - - - - - - -
21/12:00am 26.4 ENE 9 11 1011.9 - 0.4 - - - - - - -
 
Date/Time
EST
Temp
°C
Wind Pressure Rain since
9am
mm
Weather Cloud Vis
km
Sea
Height
m
Swell
Dir  Spd
kts
Gust
kts
hPa Trend Height
m
Period
s
Dir
20/11:30pm 26.5 ENE 12 14 1011.9 - 0.4 - - - - - - -
20/11:00pm 26.5 E 10 13 1012.0 - 0.4 - - - - - - -
20/10:30pm 26.6 E 11 13 1011.9 - 0.4 - - - - - - -
20/10:00pm 26.6 E 12 14 1011.9 - 0.4 - - - - - - -
20/09:30pm 26.6 E 10 13 1012.2 - 0.4 - - - - - - -
20/09:00pm 26.7 E 10 12 1011.9 - 0.4 - - - - - - -
20/08:30pm 26.7 E 10 12 1012.1 - 0.4 - - - - - - -
20/08:00pm 26.6 ESE 7 9 1011.5 - 0.4 - - - - - - -
20/07:30pm 26.6 E 9 12 1011.0 - 0.4 - - - - - - -
20/07:00pm 26.8 ESE 9 12 1010.9 - 0.4 - - - - - - -
20/06:30pm 27.1 E 8 10 1010.6 - 0.4 - - - - - - -
20/06:00pm 27.2 E 8 11 1010.4 - 0.4 - - - - - - -
20/05:30pm 27.7 ENE 8 10 1010.1 - 0.4 - - - - - - -
20/05:00pm 27.8 ENE 9 11 1010.2 - 0.4 - - - - - - -
20/04:30pm 28.3 ENE 9 11 1010.1 - 0.4 - - - - - - -
20/04:00pm 28.5 E 8 10 1010.1 - 0.4 - - - - - - -
20/03:30pm 29.0 E 7 9 1010.2 - 0.4 - - - - - - -
20/03:00pm 29.5 E 7 9 1010.3 - 0.4 - - - - - - -
20/02:30pm 29.5 E 7 9 1010.6 - 0.4 - - - - - - -
20/02:00pm 29.2 ENE 6 9 1011.0 - 0.4 - - - - - - -
20/01:30pm 28.9 E 7 9 1011.2 - 0.4 - - - - - - -
20/01:00pm 28.7 E 8 10 1011.7 - 0.4 - - - - - - -
20/12:30pm 27.7 E 7 10 1012.0 - 0.4 - - - - - - -
20/12:00pm 26.7 NE 5 7 1012.5 - 0.4 - - - - - - -
20/11:30am 29.6 ENE 7 9 1012.8 - 0.0 - - - - - - -
20/11:00am 30.7 E 7 11 1013.2 - 0.0 - - - - - - -
20/10:30am 31.1 E 9 10 1013.2 - 0.0 - - - - - - -
20/10:00am 30.3 ENE 8 11 1013.2 - 0.0 - - - - - - -
20/09:30am 29.6 E 9 11 1013.2 - 0.0 - - - - - - -
20/09:00am 28.9 E 7 9 1013.0 - 0.0 Haze Cloudy 13 - - - -
20/08:30am 27.6 ESE 7 9 1013.0 - 0.0 - - - - - - -
20/08:00am 27.0 ESE 8 9 1012.9 - 0.0 - - - - - - -
20/07:30am 26.7 ESE 8 9 1012.9 - 0.0 - - - - - - -
20/07:00am 26.3 ESE 8 11 1012.4 - 0.0 - - - - - - -
20/06:30am 26.0 E 8 11 1011.9 - 0.0 - - - - - - -
20/06:00am 25.5 E 10 11 1011.4 - 0.0 - - - - - - -
20/05:30am 25.5 E 10 13 1011.3 - 0.0 - - - - - - -
20/05:00am 25.5 E 10 13 1011.1 - 0.0 - - - - - - -
20/04:30am 25.6 E 9 12 1011.0 - 0.0 - - - - - - -
20/04:00am 25.5 E 10 12 1010.5 - 0.0 - - - - - - -
20/03:30am 25.5 E 10 12 1010.0 - 0.0 - - - - - - -
20/03:00am 25.5 E 8 11 1010.2 - 0.0 - - - - - - -
20/02:30am 25.4 ENE 10 11 1010.4 - 0.0 - - - - - - -
20/02:00am 25.5 E 9 11 1010.4 - 0.0 - - - - - - -
20/01:30am 25.7 ENE 9 11 1010.6 - 0.0 - - - - - - -
20/01:00am 25.8 ENE 9 11 1010.9 - 0.0 - - - - - - -
20/12:30am 25.7 ENE 9 11 1011.3 - 0.0 - - - - - - -
20/12:00am 25.9 E 10 12 1011.6 - 0.0 - - - - - - -
 
Date/Time
EST
Temp
°C
Wind Pressure Rain since
9am
mm
Weather Cloud Vis
km
Sea
Height
m
Swell
Dir  Spd
kts
Gust
kts
hPa Trend Height
m
Period
s
Dir
19/11:30pm 26.1 ENE 10 12 1011.9 - 0.0 - - - - - - -
19/11:00pm 26.1 ENE 11 14 1012.0 - 0.0 - - - - - - -
19/10:30pm 26.0 ENE 10 12 1012.0 - 0.0 - - - - - - -
19/10:00pm 26.2 ENE 11 13 1011.9 - 0.0 - - - - - - -
19/09:30pm 26.4 ENE 11 14 1011.5 - 0.0 - - - - - - -
19/09:00pm 26.5 E 11 14 1011.1 - 0.0 - - - - - - -
19/08:30pm 26.7 ENE 11 14 1011.1 - 0.0 - - - - - - -
19/08:00pm 26.8 ENE 9 12 1010.9 - 0.0 - - - - - - -
19/07:30pm 27.0 E 9 12 1010.4 - 0.0 - - - - - - -
19/07:00pm 26.7 E 7 9 1010.3 - 0.0 - - - - - - -
19/06:30pm 27.2 ENE 6 8 1009.9 - 0.0 - - - - - - -
19/06:00pm 27.5 E 7 9 1009.6 - 0.0 - - - - - - -
19/05:30pm 28.0 E 6 9 1009.5 - 0.0 - - - - - - -
19/05:00pm 28.7 E 7 10 1009.3 - 0.0 - - - - - - -
19/04:30pm 29.9 ENE 9 11 1009.3 - 0.0 - - - - - - -
19/04:00pm 30.8 NE 9 11 1009.2 - 0.0 - - - - - - -
19/03:30pm 31.2 ENE 9 13 1009.5 - 0.0 - - - - - - -
19/03:00pm 31.5 E 9 11 1009.5 - 0.0 - - - - - - -
19/02:30pm 31.5 E 8 11 1010.0 - 0.0 - - - - - - -
19/02:00pm 30.9 E 7 12 1010.5 - 0.0 - - - - - - -
19/01:30pm 31.3 E 8 11 1010.7 - 0.0 - - - - - - -
19/01:00pm 31.2 ESE 8 11 1011.0 - 0.0 - - - - - - -
19/12:30pm 31.2 E 7 10 1011.4 - 0.0 - - - - - - -
19/12:00pm 30.0 SE 7 11 1011.7 - 0.0 - - - - - - -
19/11:30am 29.9 SE 8 11 1012.0 - 0.0 - - - - - - -
19/11:00am 29.8 ESE 8 10 1012.1 - 0.0 - - - - - - -
19/10:30am 30.2 E 7 9 1012.4 - 0.0 - - - - - - -
19/10:00am 28.6 SE 7 9 1012.5 - 0.0 - - - - - - -
19/09:30am 28.8 E 7 10 1012.7 - 0.0 - - - - - - -
19/09:00am 29.2 E 8 11 1012.4 - 0.0 Haze Cloudy 14 - - - -
19/08:30am 28.4 E 7 10 1012.3 - 0.0 - - - - - - -
19/08:00am 27.3 E 8 10 1012.1 - 0.0 - - - - - - -
19/07:30am 26.6 ESE 7 9 1012.0 - 0.0 - - - - - - -
19/07:00am 26.0 ESE 7 9 1011.9 - 0.0 - - - - - - -
19/06:30am 25.5 ESE 8 10 1011.5 - 0.0 - - - - - - -
19/06:00am 25.2 E 8 9 1010.8 - 0.0 - - - - - - -
19/05:30am 25.3 E 8 10 1010.4 - 0.0 - - - - - - -
19/05:00am 25.5 E 9 11 1010.0 - 0.0 - - - - - - -
19/04:30am 25.5 E 9 11 1009.9 - 0.0 - - - - - - -
19/04:00am 25.4 E 9 11 1009.7 - 0.0 - - - - - - -
19/03:30am 25.3 ESE 9 11 1009.5 - 0.0 - - - - - - -
19/03:00am 25.1 ESE 7 8 1009.2 - 0.0 - - - - - - -
19/02:30am 25.0 ESE 7 9 1009.2 - 0.0 - - - - - - -
19/02:00am 25.2 ESE 8 11 1009.3 - 0.0 - - - - - - -
19/01:30am 25.4 ESE 8 10 1009.6 - 0.0 - - - - - - -
19/01:00am 25.6 ESE 8 9 1009.9 - 0.0 - - - - - - -
19/12:30am 25.8 ESE 9 11 1010.3 - 0.0 - - - - - - -
19/12:00am 26.1 ESE 8 11 1010.6 - 0.0 - - - - - - -
 
Date/Time
EST
Temp
°C
Wind Pressure Rain since
9am
mm
Weather Cloud Vis
km
Sea
Height
m
Swell
Dir  Spd
kts
Gust
kts
hPa Trend Height
m
Period
s
Dir
18/11:30pm 26.1 ESE 9 11 1011.0 - 0.0 - - - - - - -
18/11:00pm 26.0 ESE 9 11 1011.2 - 0.0 - - - - - - -
18/10:30pm 26.0 ESE 11 14 1011.0 - 0.0 - - - - - - -
18/10:00pm 26.2 SE 11 13 1011.1 - 0.0 - - - - - - -
18/09:30pm 26.2 SE 11 13 1010.8 - 0.0 - - - - - - -
18/09:00pm 26.4 SE 9 13 1010.4 - 0.0 - - - - - - -
18/08:30pm 26.4 SE 9 11 1010.3 - 0.0 - - - - - - -
18/08:00pm 26.4 SE 10 13 1010.2 - 0.0 - - - - - - -
18/07:30pm 26.5 SE 10 12 1010.0 - 0.0 - - - - - - -
18/07:00pm 26.5 SE 11 14 1010.0 - 0.0 - - - - - - -
18/06:30pm 26.9 SE 11 13 1010.0 - 0.0 - - - - - - -
18/06:00pm 27.2 ESE 10 13 1009.8 - 0.0 - - - - - - -
18/05:30pm 27.5 ESE 9 11 1009.8 - 0.0 - - - - - - -
18/05:00pm 27.8 ESE 9 12 1009.9 - 0.0 - - - - - - -
18/04:30pm 28.4 ESE 9 11 1009.9 - 0.0 - - - - - - -
18/04:00pm 28.6 SE 9 12 1009.9 - 0.0 - - - - - - -
18/03:30pm 28.7 SE 9 11 1010.0 - 0.0 - - - - - - -
18/03:00pm 29.4 ESE 9 12 1010.2 - 0.0 - - - - - - -
18/02:30pm 29.5 SE 9 12 1010.5 - 0.0 - - - - - - -
18/02:00pm 29.1 SE 11 13 1011.0 - 0.0 - - - - - - -
18/01:30pm 29.4 SE 10 13 1011.4 - 0.0 - - - - - - -
18/01:00pm 29.1 SE 10 13 1011.7 - 0.0 - - - - - - -
18/12:30pm 29.4 SE 10 14 1011.9 - 0.0 - - - - - - -
18/12:00pm 29.8 ESE 11 14 1012.1 - 0.0 - - - - - - -
18/11:30am 28.3 SE 11 14 1012.3 - 0.0 - - - - - - -
18/11:00am 28.1 SSE 9 11 1012.4 - 0.0 - - - - - - -

Other Formats:

Comma delimited format used in spreadsheet applications
http://www.bom.gov.au/fwo/IDQ60701/IDQ60701.94285.axf

JavaScript Object Notation format (JSON) in row-major order
http://www.bom.gov.au/fwo/IDQ60701/IDQ60701.94285.json